sensor_id;sensor_type;location;lat;lon;timestamp;P1;durP1;ratioP1;P2;durP2;ratioP2
48987;SDS011;34799;51.440;-2.534;2023-04-26T00:02:19;7.45;;;1.92;;
48987;SDS011;34799;51.440;-2.534;2023-04-26T00:04:51;6.35;;;2.47;;
48987;SDS011;34799;51.440;-2.534;2023-04-26T00:07:23;5.20;;;2.08;;
48987;SDS011;34799;51.440;-2.534;2023-04-26T00:09:51;10.55;;;1.75;;
48987;SDS011;34799;51.440;-2.534;2023-04-26T00:12:18;7.55;;;2.00;;
48987;SDS011;34799;51.440;-2.534;2023-04-26T00:14:46;8.68;;;2.33;;
48987;SDS011;34799;51.440;-2.534;2023-04-26T00:17:13;7.00;;;1.83;;
48987;SDS011;34799;51.440;-2.534;2023-04-26T00:19:40;8.93;;;1.90;;
48987;SDS011;34799;51.440;-2.534;2023-04-26T00:22:07;8.95;;;2.25;;
48987;SDS011;34799;51.440;-2.534;2023-04-26T00:24:34;10.23;;;2.10;;
48987;SDS011;34799;51.440;-2.534;2023-04-26T00:27:01;9.43;;;2.28;;
48987;SDS011;34799;51.440;-2.534;2023-04-26T00:29:34;7.70;;;1.73;;
48987;SDS011;34799;51.440;-2.534;2023-04-26T00:32:05;6.05;;;1.83;;
48987;SDS011;34799;51.440;-2.534;2023-04-26T00:34:33;7.95;;;2.10;;
48987;SDS011;34799;51.440;-2.534;2023-04-26T00:37:03;4.93;;;1.60;;
48987;SDS011;34799;51.440;-2.534;2023-04-26T00:39:32;4.80;;;1.92;;
48987;SDS011;34799;51.440;-2.534;2023-04-26T00:42:00;8.43;;;1.75;;
48987;SDS011;34799;51.440;-2.534;2023-04-26T00:44:27;3.63;;;1.48;;
48987;SDS011;34799;51.440;-2.534;2023-04-26T00:46:54;7.72;;;1.73;;
48987;SDS011;34799;51.440;-2.534;2023-04-26T00:49:22;7.57;;;1.90;;
48987;SDS011;34799;51.440;-2.534;2023-04-26T00:51:53;5.97;;;1.42;;
48987;SDS011;34799;51.440;-2.534;2023-04-26T00:54:20;8.07;;;2.35;;
48987;SDS011;34799;51.440;-2.534;2023-04-26T00:56:48;7.40;;;1.90;;
48987;SDS011;34799;51.440;-2.534;2023-04-26T00:59:19;8.35;;;2.28;;
48987;SDS011;34799;51.440;-2.534;2023-04-26T01:01:48;7.68;;;1.58;;
48987;SDS011;34799;51.440;-2.534;2023-04-26T01:04:15;7.07;;;2.15;;
48987;SDS011;34799;51.440;-2.534;2023-04-26T01:06:43;6.55;;;2.25;;
48987;SDS011;34799;51.440;-2.534;2023-04-26T01:09:10;5.43;;;1.70;;
48987;SDS011;34799;51.440;-2.534;2023-04-26T01:11:42;9.57;;;1.90;;
48987;SDS011;34799;51.440;-2.534;2023-04-26T01:14:10;5.80;;;1.60;;
48987;SDS011;34799;51.440;-2.534;2023-04-26T01:16:37;4.97;;;1.42;;
48987;SDS011;34799;51.440;-2.534;2023-04-26T01:19:09;7.38;;;1.70;;
48987;SDS011;34799;51.440;-2.534;2023-04-26T01:21:40;8.05;;;1.75;;
48987;SDS011;34799;51.440;-2.534;2023-04-26T01:24:11;7.20;;;2.10;;
48987;SDS011;34799;51.440;-2.534;2023-04-26T01:26:39;8.38;;;1.85;;
48987;SDS011;34799;51.440;-2.534;2023-04-26T01:29:15;7.43;;;2.47;;
48987;SDS011;34799;51.440;-2.534;2023-04-26T01:31:44;9.57;;;1.65;;
48987;SDS011;34799;51.440;-2.534;2023-04-26T01:34:13;8.02;;;1.75;;
48987;SDS011;34799;51.440;-2.534;2023-04-26T01:36:44;5.15;;;1.60;;
48987;SDS011;34799;51.440;-2.534;2023-04-26T01:39:11;9.65;;;2.28;;
48987;SDS011;34799;51.440;-2.534;2023-04-26T01:41:39;8.27;;;2.33;;
48987;SDS011;34799;51.440;-2.534;2023-04-26T01:44:07;10.35;;;2.35;;
48987;SDS011;34799;51.440;-2.534;2023-04-26T01:46:34;9.30;;;1.92;;
48987;SDS011;34799;51.440;-2.534;2023-04-26T01:49:02;10.50;;;1.88;;
48987;SDS011;34799;51.440;-2.534;2023-04-26T01:51:29;8.05;;;1.73;;
48987;SDS011;34799;51.440;-2.534;2023-04-26T01:53:56;6.00;;;2.00;;
48987;SDS011;34799;51.440;-2.534;2023-04-26T01:56:23;5.65;;;1.60;;
48987;SDS011;34799;51.440;-2.534;2023-04-26T01:58:53;5.97;;;2.30;;
48987;SDS011;34799;51.440;-2.534;2023-04-26T02:01:22;7.13;;;1.42;;
48987;SDS011;34799;51.440;-2.534;2023-04-26T02:03:49;7.55;;;1.98;;
48987;SDS011;34799;51.440;-2.534;2023-04-26T02:06:18;8.63;;;1.50;;
48987;SDS011;34799;51.440;-2.534;2023-04-26T02:08:46;8.30;;;2.47;;
48987;SDS011;34799;51.440;-2.534;2023-04-26T02:11:14;7.40;;;2.33;;
48987;SDS011;34799;51.440;-2.534;2023-04-26T02:13:41;3.65;;;1.40;;
48987;SDS011;34799;51.440;-2.534;2023-04-26T02:16:08;9.57;;;1.60;;
48987;SDS011;34799;51.440;-2.534;2023-04-26T02:18:36;7.20;;;1.48;;
48987;SDS011;34799;51.440;-2.534;2023-04-26T02:21:07;7.85;;;1.50;;
48987;SDS011;34799;51.440;-2.534;2023-04-26T02:23:36;6.25;;;1.23;;
48987;SDS011;34799;51.440;-2.534;2023-04-26T02:26:03;5.88;;;1.38;;
48987;SDS011;34799;51.440;-2.534;2023-04-26T02:28:30;5.97;;;1.48;;
48987;SDS011;34799;51.440;-2.534;2023-04-26T02:30:57;7.25;;;1.50;;
48987;SDS011;34799;51.440;-2.534;2023-04-26T02:33:26;7.35;;;1.52;;
48987;SDS011;34799;51.440;-2.534;2023-04-26T02:35:55;3.17;;;1.48;;
48987;SDS011;34799;51.440;-2.534;2023-04-26T02:38:22;6.32;;;1.55;;
48987;SDS011;34799;51.440;-2.534;2023-04-26T02:41:01;5.47;;;1.50;;
48987;SDS011;34799;51.440;-2.534;2023-04-26T02:43:30;4.35;;;1.30;;
48987;SDS011;34799;51.440;-2.534;2023-04-26T02:45:57;7.07;;;1.60;;
48987;SDS011;34799;51.440;-2.534;2023-04-26T02:48:26;11.02;;;1.63;;
48987;SDS011;34799;51.440;-2.534;2023-04-26T02:50:53;7.53;;;1.48;;
48987;SDS011;34799;51.440;-2.534;2023-04-26T02:53:20;8.18;;;1.77;;
48987;SDS011;34799;51.440;-2.534;2023-04-26T02:55:47;3.47;;;1.27;;
48987;SDS011;34799;51.440;-2.534;2023-04-26T02:58:14;5.70;;;1.60;;
48987;SDS011;34799;51.440;-2.534;2023-04-26T03:00:44;4.80;;;1.20;;
48987;SDS011;34799;51.440;-2.534;2023-04-26T03:03:13;5.93;;;1.83;;
48987;SDS011;34799;51.440;-2.534;2023-04-26T03:05:41;4.88;;;1.40;;
48987;SDS011;34799;51.440;-2.534;2023-04-26T03:08:08;8.02;;;1.80;;
48987;SDS011;34799;51.440;-2.534;2023-04-26T03:10:36;6.72;;;1.33;;
48987;SDS011;34799;51.440;-2.534;2023-04-26T03:13:04;5.22;;;1.27;;
48987;SDS011;34799;51.440;-2.534;2023-04-26T03:15:31;7.30;;;1.92;;
48987;SDS011;34799;51.440;-2.534;2023-04-26T03:17:58;11.05;;;2.05;;
48987;SDS011;34799;51.440;-2.534;2023-04-26T03:20:26;11.77;;;1.63;;
48987;SDS011;34799;51.440;-2.534;2023-04-26T03:22:53;5.22;;;1.52;;
48987;SDS011;34799;51.440;-2.534;2023-04-26T03:25:20;5.00;;;1.70;;
48987;SDS011;34799;51.440;-2.534;2023-04-26T03:27:49;8.95;;;1.85;;
48987;SDS011;34799;51.440;-2.534;2023-04-26T03:30:16;5.03;;;1.08;;
48987;SDS011;34799;51.440;-2.534;2023-04-26T03:32:44;4.38;;;1.30;;
48987;SDS011;34799;51.440;-2.534;2023-04-26T03:35:11;6.47;;;1.48;;
48987;SDS011;34799;51.440;-2.534;2023-04-26T03:37:38;10.23;;;1.55;;
48987;SDS011;34799;51.440;-2.534;2023-04-26T03:40:10;4.30;;;1.70;;
48987;SDS011;34799;51.440;-2.534;2023-04-26T03:42:37;6.22;;;1.10;;
48987;SDS011;34799;51.440;-2.534;2023-04-26T03:45:04;5.65;;;1.33;;
48987;SDS011;34799;51.440;-2.534;2023-04-26T03:47:33;7.32;;;1.60;;
48987;SDS011;34799;51.440;-2.534;2023-04-26T03:50:00;5.88;;;1.67;;
48987;SDS011;34799;51.440;-2.534;2023-04-26T03:52:29;6.57;;;1.38;;
48987;SDS011;34799;51.440;-2.534;2023-04-26T03:54:56;5.78;;;1.33;;
48987;SDS011;34799;51.440;-2.534;2023-04-26T03:57:23;5.45;;;1.40;;
48987;SDS011;34799;51.440;-2.534;2023-04-26T03:59:50;4.40;;;1.48;;
48987;SDS011;34799;51.440;-2.534;2023-04-26T04:02:18;9.55;;;1.77;;
48987;SDS011;34799;51.440;-2.534;2023-04-26T04:04:45;9.32;;;1.63;;
48987;SDS011;34799;51.440;-2.534;2023-04-26T04:07:13;5.78;;;1.63;;
48987;SDS011;34799;51.440;-2.534;2023-04-26T04:09:41;6.03;;;1.50;;
48987;SDS011;34799;51.440;-2.534;2023-04-26T04:12:09;3.10;;;1.48;;
48987;SDS011;34799;51.440;-2.534;2023-04-26T04:14:36;5.95;;;1.23;;
48987;SDS011;34799;51.440;-2.534;2023-04-26T04:17:04;6.78;;;1.23;;
48987;SDS011;34799;51.440;-2.534;2023-04-26T04:19:32;6.22;;;1.27;;
48987;SDS011;34799;51.440;-2.534;2023-04-26T04:21:59;8.07;;;1.45;;
48987;SDS011;34799;51.440;-2.534;2023-04-26T04:24:28;5.22;;;1.40;;
48987;SDS011;34799;51.440;-2.534;2023-04-26T04:26:55;4.65;;;1.13;;
48987;SDS011;34799;51.440;-2.534;2023-04-26T04:29:25;5.78;;;1.35;;
48987;SDS011;34799;51.440;-2.534;2023-04-26T04:31:52;4.65;;;1.02;;
48987;SDS011;34799;51.440;-2.534;2023-04-26T04:34:19;9.15;;;1.17;;
48987;SDS011;34799;51.440;-2.534;2023-04-26T04:36:48;7.40;;;1.40;;
48987;SDS011;34799;51.440;-2.534;2023-04-26T04:39:16;8.05;;;1.08;;
48987;SDS011;34799;51.440;-2.534;2023-04-26T04:41:44;4.13;;;0.95;;
48987;SDS011;34799;51.440;-2.534;2023-04-26T04:44:17;6.90;;;1.23;;
48987;SDS011;34799;51.440;-2.534;2023-04-26T04:46:44;3.92;;;1.00;;
48987;SDS011;34799;51.440;-2.534;2023-04-26T04:49:12;3.97;;;1.05;;
48987;SDS011;34799;51.440;-2.534;2023-04-26T04:51:39;7.93;;;1.08;;
48987;SDS011;34799;51.440;-2.534;2023-04-26T04:54:13;5.45;;;1.45;;
48987;SDS011;34799;51.440;-2.534;2023-04-26T04:56:45;7.07;;;1.52;;
48987;SDS011;34799;51.440;-2.534;2023-04-26T04:59:14;5.82;;;1.30;;
48987;SDS011;34799;51.440;-2.534;2023-04-26T05:01:41;6.50;;;1.00;;
48987;SDS011;34799;51.440;-2.534;2023-04-26T05:04:12;5.47;;;1.38;;
48987;SDS011;34799;51.440;-2.534;2023-04-26T05:06:40;3.42;;;1.02;;
48987;SDS011;34799;51.440;-2.534;2023-04-26T05:09:07;9.82;;;1.63;;
48987;SDS011;34799;51.440;-2.534;2023-04-26T05:11:35;4.38;;;1.00;;
48987;SDS011;34799;51.440;-2.534;2023-04-26T05:14:04;7.15;;;1.25;;
48987;SDS011;34799;51.440;-2.534;2023-04-26T05:16:32;6.13;;;1.50;;
48987;SDS011;34799;51.440;-2.534;2023-04-26T05:19:01;6.55;;;1.30;;
48987;SDS011;34799;51.440;-2.534;2023-04-26T05:21:28;4.93;;;1.00;;
48987;SDS011;34799;51.440;-2.534;2023-04-26T05:23:57;5.43;;;1.05;;
48987;SDS011;34799;51.440;-2.534;2023-04-26T05:26:25;7.05;;;0.95;;
48987;SDS011;34799;51.440;-2.534;2023-04-26T05:28:57;5.28;;;1.00;;
48987;SDS011;34799;51.440;-2.534;2023-04-26T05:31:42;3.85;;;1.15;;
48987;SDS011;34799;51.440;-2.534;2023-04-26T05:34:24;4.28;;;0.95;;
48987;SDS011;34799;51.440;-2.534;2023-04-26T05:36:56;6.05;;;1.17;;
48987;SDS011;34799;51.440;-2.534;2023-04-26T05:39:24;4.35;;;0.73;;
48987;SDS011;34799;51.440;-2.534;2023-04-26T05:41:51;5.38;;;1.27;;
48987;SDS011;34799;51.440;-2.534;2023-04-26T05:44:18;6.72;;;1.15;;
48987;SDS011;34799;51.440;-2.534;2023-04-26T05:46:45;5.78;;;0.82;;
48987;SDS011;34799;51.440;-2.534;2023-04-26T05:49:13;7.13;;;1.77;;
48987;SDS011;34799;51.440;-2.534;2023-04-26T05:51:40;6.47;;;1.05;;
48987;SDS011;34799;51.440;-2.534;2023-04-26T05:54:08;6.13;;;0.95;;
48987;SDS011;34799;51.440;-2.534;2023-04-26T05:56:36;5.45;;;1.58;;
48987;SDS011;34799;51.440;-2.534;2023-04-26T05:59:03;7.07;;;1.58;;
48987;SDS011;34799;51.440;-2.534;2023-04-26T06:01:32;8.20;;;1.25;;
48987;SDS011;34799;51.440;-2.534;2023-04-26T06:04:00;8.73;;;1.92;;
48987;SDS011;34799;51.440;-2.534;2023-04-26T06:06:35;5.68;;;1.40;;
48987;SDS011;34799;51.440;-2.534;2023-04-26T06:09:04;2.67;;;1.08;;
48987;SDS011;34799;51.440;-2.534;2023-04-26T06:11:31;6.40;;;1.50;;
48987;SDS011;34799;51.440;-2.534;2023-04-26T06:13:59;7.57;;;1.92;;
48987;SDS011;34799;51.440;-2.534;2023-04-26T06:16:26;2.83;;;0.90;;
48987;SDS011;34799;51.440;-2.534;2023-04-26T06:18:53;6.05;;;1.77;;
48987;SDS011;34799;51.440;-2.534;2023-04-26T06:21:20;7.88;;;2.08;;
48987;SDS011;34799;51.440;-2.534;2023-04-26T06:23:47;8.25;;;1.75;;
48987;SDS011;34799;51.440;-2.534;2023-04-26T06:26:17;7.93;;;1.23;;
48987;SDS011;34799;51.440;-2.534;2023-04-26T06:28:44;13.13;;;1.70;;
48987;SDS011;34799;51.440;-2.534;2023-04-26T06:31:12;11.68;;;1.92;;
48987;SDS011;34799;51.440;-2.534;2023-04-26T06:33:39;6.07;;;1.45;;
48987;SDS011;34799;51.440;-2.534;2023-04-26T06:36:10;7.15;;;2.40;;
48987;SDS011;34799;51.440;-2.534;2023-04-26T06:38:39;8.10;;;1.70;;
48987;SDS011;34799;51.440;-2.534;2023-04-26T06:41:07;4.40;;;1.63;;
48987;SDS011;34799;51.440;-2.534;2023-04-26T06:43:34;6.10;;;1.48;;
48987;SDS011;34799;51.440;-2.534;2023-04-26T06:46:05;6.95;;;1.35;;
48987;SDS011;34799;51.440;-2.534;2023-04-26T06:48:32;7.15;;;1.85;;
48987;SDS011;34799;51.440;-2.534;2023-04-26T06:51:06;6.22;;;1.20;;
48987;SDS011;34799;51.440;-2.534;2023-04-26T06:53:34;5.30;;;1.33;;
48987;SDS011;34799;51.440;-2.534;2023-04-26T06:56:02;6.00;;;1.27;;
48987;SDS011;34799;51.440;-2.534;2023-04-26T06:58:29;7.05;;;1.27;;
48987;SDS011;34799;51.440;-2.534;2023-04-26T07:00:56;7.97;;;1.30;;
48987;SDS011;34799;51.440;-2.534;2023-04-26T07:03:23;3.92;;;1.00;;
48987;SDS011;34799;51.440;-2.534;2023-04-26T07:05:53;3.72;;;1.40;;
48987;SDS011;34799;51.440;-2.534;2023-04-26T07:08:21;6.47;;;1.20;;
48987;SDS011;34799;51.440;-2.534;2023-04-26T07:10:48;5.90;;;1.25;;
48987;SDS011;34799;51.440;-2.534;2023-04-26T07:13:15;4.05;;;0.98;;
48987;SDS011;34799;51.440;-2.534;2023-04-26T07:15:42;5.40;;;1.08;;
48987;SDS011;34799;51.440;-2.534;2023-04-26T07:18:09;12.40;;;1.80;;
48987;SDS011;34799;51.440;-2.534;2023-04-26T07:20:38;6.28;;;1.17;;
48987;SDS011;34799;51.440;-2.534;2023-04-26T07:23:05;8.23;;;1.33;;
48987;SDS011;34799;51.440;-2.534;2023-04-26T07:25:32;8.75;;;1.20;;
48987;SDS011;34799;51.440;-2.534;2023-04-26T07:27:59;4.63;;;0.93;;
48987;SDS011;34799;51.440;-2.534;2023-04-26T07:30:26;4.80;;;1.15;;
48987;SDS011;34799;51.440;-2.534;2023-04-26T07:32:53;7.93;;;1.35;;
48987;SDS011;34799;51.440;-2.534;2023-04-26T07:35:21;7.10;;;1.08;;
48987;SDS011;34799;51.440;-2.534;2023-04-26T07:37:48;8.43;;;1.00;;
48987;SDS011;34799;51.440;-2.534;2023-04-26T07:40:16;7.85;;;1.40;;
48987;SDS011;34799;51.440;-2.534;2023-04-26T07:42:45;9.60;;;1.70;;
48987;SDS011;34799;51.440;-2.534;2023-04-26T07:45:12;8.15;;;1.00;;
48987;SDS011;34799;51.440;-2.534;2023-04-26T07:47:39;7.30;;;1.02;;
48987;SDS011;34799;51.440;-2.534;2023-04-26T07:50:06;5.38;;;1.27;;
48987;SDS011;34799;51.440;-2.534;2023-04-26T07:52:34;10.73;;;1.42;;
48987;SDS011;34799;51.440;-2.534;2023-04-26T07:55:03;10.23;;;1.60;;
48987;SDS011;34799;51.440;-2.534;2023-04-26T07:57:30;9.27;;;2.00;;
48987;SDS011;34799;51.440;-2.534;2023-04-26T07:59:57;10.65;;;1.48;;
48987;SDS011;34799;51.440;-2.534;2023-04-26T08:02:24;9.60;;;1.45;;
48987;SDS011;34799;51.440;-2.534;2023-04-26T08:04:56;10.05;;;1.70;;
48987;SDS011;34799;51.440;-2.534;2023-04-26T08:07:24;7.93;;;1.50;;
48987;SDS011;34799;51.440;-2.534;2023-04-26T08:09:50;6.82;;;1.58;;
48987;SDS011;34799;51.440;-2.534;2023-04-26T08:12:18;8.38;;;1.30;;
48987;SDS011;34799;51.440;-2.534;2023-04-26T08:14:45;6.00;;;1.60;;
48987;SDS011;34799;51.440;-2.534;2023-04-26T08:17:12;7.97;;;1.48;;
48987;SDS011;34799;51.440;-2.534;2023-04-26T08:19:39;7.80;;;1.45;;
48987;SDS011;34799;51.440;-2.534;2023-04-26T08:22:06;5.93;;;1.70;;
48987;SDS011;34799;51.440;-2.534;2023-04-26T08:24:35;6.00;;;1.67;;
48987;SDS011;34799;51.440;-2.534;2023-04-26T08:27:02;6.78;;;1.35;;
48987;SDS011;34799;51.440;-2.534;2023-04-26T08:29:29;6.40;;;1.30;;
48987;SDS011;34799;51.440;-2.534;2023-04-26T08:31:56;3.70;;;1.63;;
48987;SDS011;34799;51.440;-2.534;2023-04-26T08:34:23;6.82;;;1.42;;
48987;SDS011;34799;51.440;-2.534;2023-04-26T08:36:50;7.13;;;1.35;;
48987;SDS011;34799;51.440;-2.534;2023-04-26T08:39:17;8.90;;;1.73;;
48987;SDS011;34799;51.440;-2.534;2023-04-26T08:41:47;7.30;;;1.27;;
48987;SDS011;34799;51.440;-2.534;2023-04-26T08:44:18;4.35;;;1.92;;
48987;SDS011;34799;51.440;-2.534;2023-04-26T08:47:05;8.82;;;1.42;;
48987;SDS011;34799;51.440;-2.534;2023-04-26T08:49:40;6.05;;;2.08;;
48987;SDS011;34799;51.440;-2.534;2023-04-26T08:52:30;5.50;;;1.65;;
48987;SDS011;34799;51.440;-2.534;2023-04-26T08:54:58;5.20;;;1.30;;
48987;SDS011;34799;51.440;-2.534;2023-04-26T08:57:28;6.38;;;1.33;;
48987;SDS011;34799;51.440;-2.534;2023-04-26T08:59:58;5.90;;;1.42;;
48987;SDS011;34799;51.440;-2.534;2023-04-26T09:02:31;9.48;;;1.42;;
48987;SDS011;34799;51.440;-2.534;2023-04-26T09:04:58;10.90;;;2.33;;
48987;SDS011;34799;51.440;-2.534;2023-04-26T09:07:35;8.98;;;1.80;;
48987;SDS011;34799;51.440;-2.534;2023-04-26T09:10:08;10.98;;;3.60;;
48987;SDS011;34799;51.440;-2.534;2023-04-26T09:12:36;6.13;;;1.30;;
48987;SDS011;34799;51.440;-2.534;2023-04-26T09:15:04;7.80;;;2.65;;
48987;SDS011;34799;51.440;-2.534;2023-04-26T09:17:36;6.75;;;1.70;;
48987;SDS011;34799;51.440;-2.534;2023-04-26T09:23:04;6.90;;;1.92;;
48987;SDS011;34799;51.440;-2.534;2023-04-26T09:25:33;7.47;;;1.88;;
48987;SDS011;34799;51.440;-2.534;2023-04-26T09:28:02;7.47;;;2.25;;
48987;SDS011;34799;51.440;-2.534;2023-04-26T09:30:36;9.20;;;2.22;;
48987;SDS011;34799;51.440;-2.534;2023-04-26T09:33:06;8.68;;;1.92;;
48987;SDS011;34799;51.440;-2.534;2023-04-26T09:35:35;9.80;;;2.08;;
48987;SDS011;34799;51.440;-2.534;2023-04-26T09:38:05;6.00;;;2.08;;
48987;SDS011;34799;51.440;-2.534;2023-04-26T09:40:49;4.82;;;2.10;;
48987;SDS011;34799;51.440;-2.534;2023-04-26T09:43:18;7.80;;;2.90;;
48987;SDS011;34799;51.440;-2.534;2023-04-26T09:45:48;10.48;;;2.50;;
48987;SDS011;34799;51.440;-2.534;2023-04-26T09:48:27;14.93;;;3.15;;
48987;SDS011;34799;51.440;-2.534;2023-04-26T09:50:57;9.27;;;1.63;;
48987;SDS011;34799;51.440;-2.534;2023-04-26T09:53:40;10.65;;;2.20;;
48987;SDS011;34799;51.440;-2.534;2023-04-26T09:56:12;5.20;;;1.75;;
48987;SDS011;34799;51.440;-2.534;2023-04-26T10:01:18;8.35;;;2.00;;
48987;SDS011;34799;51.440;-2.534;2023-04-26T10:03:45;8.75;;;2.33;;
48987;SDS011;34799;51.440;-2.534;2023-04-26T10:06:13;5.88;;;2.13;;
48987;SDS011;34799;51.440;-2.534;2023-04-26T10:08:40;7.97;;;2.17;;
48987;SDS011;34799;51.440;-2.534;2023-04-26T10:11:10;9.52;;;2.92;;
48987;SDS011;34799;51.440;-2.534;2023-04-26T10:13:38;9.38;;;2.30;;
48987;SDS011;34799;51.440;-2.534;2023-04-26T10:16:07;11.32;;;2.22;;
48987;SDS011;34799;51.440;-2.534;2023-04-26T10:18:35;10.68;;;1.95;;
48987;SDS011;34799;51.440;-2.534;2023-04-26T10:21:05;11.98;;;2.30;;
48987;SDS011;34799;51.440;-2.534;2023-04-26T10:23:39;10.60;;;3.10;;
48987;SDS011;34799;51.440;-2.534;2023-04-26T10:26:06;8.98;;;2.33;;
48987;SDS011;34799;51.440;-2.534;2023-04-26T10:29:13;10.32;;;2.38;;
48987;SDS011;34799;51.440;-2.534;2023-04-26T10:34:29;16.90;;;3.00;;
48987;SDS011;34799;51.440;-2.534;2023-04-26T10:39:38;9.80;;;2.25;;
48987;SDS011;34799;51.440;-2.534;2023-04-26T10:47:24;7.68;;;2.17;;
48987;SDS011;34799;51.440;-2.534;2023-04-26T10:50:05;14.45;;;3.28;;
48987;SDS011;34799;51.440;-2.534;2023-04-26T10:53:22;8.65;;;2.35;;
48987;SDS011;34799;51.440;-2.534;2023-04-26T10:58:27;12.45;;;2.38;;
48987;SDS011;34799;51.440;-2.534;2023-04-26T11:01:07;12.38;;;2.70;;
48987;SDS011;34799;51.440;-2.534;2023-04-26T11:03:43;10.20;;;2.17;;
48987;SDS011;34799;51.440;-2.534;2023-04-26T11:06:54;10.45;;;2.88;;
48987;SDS011;34799;51.440;-2.534;2023-04-26T11:12:04;12.18;;;2.78;;
48987;SDS011;34799;51.440;-2.534;2023-04-26T11:14:33;12.85;;;2.80;;
48987;SDS011;34799;51.440;-2.534;2023-04-26T11:17:07;12.70;;;3.47;;
48987;SDS011;34799;51.440;-2.534;2023-04-26T11:19:34;9.05;;;2.42;;
48987;SDS011;34799;51.440;-2.534;2023-04-26T11:22:02;12.50;;;2.58;;
48987;SDS011;34799;51.440;-2.534;2023-04-26T11:24:34;13.52;;;3.05;;
48987;SDS011;34799;51.440;-2.534;2023-04-26T11:27:09;8.00;;;2.70;;
48987;SDS011;34799;51.440;-2.534;2023-04-26T11:29:37;9.32;;;3.00;;
48987;SDS011;34799;51.440;-2.534;2023-04-26T11:32:04;12.85;;;3.42;;
48987;SDS011;34799;51.440;-2.534;2023-04-26T11:34:35;9.38;;;3.80;;
48987;SDS011;34799;51.440;-2.534;2023-04-26T11:37:05;12.07;;;3.35;;
48987;SDS011;34799;51.440;-2.534;2023-04-26T11:39:35;11.25;;;3.10;;
48987;SDS011;34799;51.440;-2.534;2023-04-26T11:42:04;7.88;;;2.90;;
48987;SDS011;34799;51.440;-2.534;2023-04-26T11:44:36;9.27;;;2.65;;
48987;SDS011;34799;51.440;-2.534;2023-04-26T11:47:05;14.80;;;3.75;;
48987;SDS011;34799;51.440;-2.534;2023-04-26T11:49:35;9.43;;;2.97;;
48987;SDS011;34799;51.440;-2.534;2023-04-26T11:52:03;11.25;;;3.00;;
48987;SDS011;34799;51.440;-2.534;2023-04-26T11:54:31;12.73;;;2.85;;
48987;SDS011;34799;51.440;-2.534;2023-04-26T11:57:00;8.93;;;2.63;;
48987;SDS011;34799;51.440;-2.534;2023-04-26T11:59:43;9.07;;;2.80;;
48987;SDS011;34799;51.440;-2.534;2023-04-26T12:02:11;11.77;;;3.30;;
48987;SDS011;34799;51.440;-2.534;2023-04-26T12:04:38;18.85;;;4.47;;
48987;SDS011;34799;51.440;-2.534;2023-04-26T12:07:11;7.75;;;2.60;;
48987;SDS011;34799;51.440;-2.534;2023-04-26T12:09:43;8.82;;;2.78;;
48987;SDS011;34799;51.440;-2.534;2023-04-26T12:12:12;10.68;;;3.50;;
48987;SDS011;34799;51.440;-2.534;2023-04-26T12:14:39;11.10;;;2.90;;
48987;SDS011;34799;51.440;-2.534;2023-04-26T12:17:06;10.27;;;3.35;;
48987;SDS011;34799;51.440;-2.534;2023-04-26T12:19:34;6.93;;;2.92;;
48987;SDS011;34799;51.440;-2.534;2023-04-26T12:22:06;9.70;;;3.10;;
48987;SDS011;34799;51.440;-2.534;2023-04-26T12:24:34;16.20;;;3.33;;
48987;SDS011;34799;51.440;-2.534;2023-04-26T12:27:04;12.60;;;3.63;;
48987;SDS011;34799;51.440;-2.534;2023-04-26T12:29:34;8.63;;;3.20;;
48987;SDS011;34799;51.440;-2.534;2023-04-26T12:32:01;11.40;;;2.92;;
48987;SDS011;34799;51.440;-2.534;2023-04-26T12:34:28;15.55;;;4.13;;
48987;SDS011;34799;51.440;-2.534;2023-04-26T12:36:56;10.30;;;2.83;;
48987;SDS011;34799;51.440;-2.534;2023-04-26T12:39:23;12.05;;;3.05;;
48987;SDS011;34799;51.440;-2.534;2023-04-26T12:41:50;9.82;;;4.03;;
48987;SDS011;34799;51.440;-2.534;2023-04-26T12:44:17;9.55;;;2.95;;
48987;SDS011;34799;51.440;-2.534;2023-04-26T12:46:46;8.80;;;3.20;;
48987;SDS011;34799;51.440;-2.534;2023-04-26T12:49:13;12.32;;;3.58;;
48987;SDS011;34799;51.440;-2.534;2023-04-26T12:51:40;10.35;;;2.88;;
48987;SDS011;34799;51.440;-2.534;2023-04-26T12:54:07;11.52;;;3.38;;
48987;SDS011;34799;51.440;-2.534;2023-04-26T12:56:34;15.63;;;3.40;;
48987;SDS011;34799;51.440;-2.534;2023-04-26T12:59:07;10.98;;;3.40;;
48987;SDS011;34799;51.440;-2.534;2023-04-26T13:01:34;14.35;;;2.92;;
48987;SDS011;34799;51.440;-2.534;2023-04-26T13:04:01;12.90;;;3.10;;
48987;SDS011;34799;51.440;-2.534;2023-04-26T13:06:31;10.30;;;3.10;;
48987;SDS011;34799;51.440;-2.534;2023-04-26T13:09:00;8.45;;;2.92;;
48987;SDS011;34799;51.440;-2.534;2023-04-26T13:11:28;10.82;;;3.60;;
48987;SDS011;34799;51.440;-2.534;2023-04-26T13:13:54;13.40;;;3.30;;
48987;SDS011;34799;51.440;-2.534;2023-04-26T13:16:21;12.80;;;3.28;;
48987;SDS011;34799;51.440;-2.534;2023-04-26T13:18:49;11.43;;;3.78;;
48987;SDS011;34799;51.440;-2.534;2023-04-26T13:21:16;15.52;;;4.07;;
48987;SDS011;34799;51.440;-2.534;2023-04-26T13:23:43;9.27;;;3.20;;
48987;SDS011;34799;51.440;-2.534;2023-04-26T13:26:12;10.15;;;2.65;;
48987;SDS011;34799;51.440;-2.534;2023-04-26T13:28:45;11.30;;;3.10;;
48987;SDS011;34799;51.440;-2.534;2023-04-26T13:31:14;11.02;;;3.20;;
48987;SDS011;34799;51.440;-2.534;2023-04-26T13:33:43;11.40;;;2.90;;
48987;SDS011;34799;51.440;-2.534;2023-04-26T13:36:12;10.18;;;2.55;;
48987;SDS011;34799;51.440;-2.534;2023-04-26T13:38:42;12.95;;;3.25;;
48987;SDS011;34799;51.440;-2.534;2023-04-26T13:41:09;11.18;;;2.90;;
48987;SDS011;34799;51.440;-2.534;2023-04-26T13:43:36;13.65;;;3.13;;
48987;SDS011;34799;51.440;-2.534;2023-04-26T13:46:03;10.10;;;2.63;;
48987;SDS011;34799;51.440;-2.534;2023-04-26T13:48:31;12.45;;;3.05;;
48987;SDS011;34799;51.440;-2.534;2023-04-26T13:50:57;8.27;;;3.28;;
48987;SDS011;34799;51.440;-2.534;2023-04-26T13:53:24;9.32;;;2.58;;
48987;SDS011;34799;51.440;-2.534;2023-04-26T13:55:52;7.05;;;2.88;;
48987;SDS011;34799;51.440;-2.534;2023-04-26T13:58:20;8.20;;;3.15;;
48987;SDS011;34799;51.440;-2.534;2023-04-26T14:00:47;12.30;;;3.40;;
48987;SDS011;34799;51.440;-2.534;2023-04-26T14:03:14;10.68;;;3.03;;
48987;SDS011;34799;51.440;-2.534;2023-04-26T14:05:41;8.75;;;3.20;;
48987;SDS011;34799;51.440;-2.534;2023-04-26T14:08:08;6.72;;;3.17;;
48987;SDS011;34799;51.440;-2.534;2023-04-26T14:10:37;6.63;;;3.00;;
48987;SDS011;34799;51.440;-2.534;2023-04-26T14:13:06;11.18;;;2.70;;
48987;SDS011;34799;51.440;-2.534;2023-04-26T14:15:33;5.78;;;2.30;;
48987;SDS011;34799;51.440;-2.534;2023-04-26T14:18:00;10.30;;;3.20;;
48987;SDS011;34799;51.440;-2.534;2023-04-26T14:20:27;8.45;;;2.95;;
48987;SDS011;34799;51.440;-2.534;2023-04-26T14:22:54;13.95;;;2.88;;
48987;SDS011;34799;51.440;-2.534;2023-04-26T14:25:22;9.20;;;3.13;;
48987;SDS011;34799;51.440;-2.534;2023-04-26T14:27:48;8.35;;;2.28;;
48987;SDS011;34799;51.440;-2.534;2023-04-26T14:30:16;18.55;;;3.63;;
48987;SDS011;34799;51.440;-2.534;2023-04-26T14:32:45;5.22;;;2.60;;
48987;SDS011;34799;51.440;-2.534;2023-04-26T14:35:12;10.95;;;2.83;;
48987;SDS011;34799;51.440;-2.534;2023-04-26T14:37:39;10.13;;;2.70;;
48987;SDS011;34799;51.440;-2.534;2023-04-26T14:40:06;11.57;;;3.72;;
48987;SDS011;34799;51.440;-2.534;2023-04-26T14:42:34;17.63;;;4.85;;
48987;SDS011;34799;51.440;-2.534;2023-04-26T14:45:01;28.45;;;14.55;;
48987;SDS011;34799;51.440;-2.534;2023-04-26T14:47:30;10.13;;;3.70;;
48987;SDS011;34799;51.440;-2.534;2023-04-26T14:49:58;8.40;;;2.90;;
48987;SDS011;34799;51.440;-2.534;2023-04-26T14:52:25;7.72;;;2.95;;
48987;SDS011;34799;51.440;-2.534;2023-04-26T14:54:54;9.55;;;2.50;;
48987;SDS011;34799;51.440;-2.534;2023-04-26T14:57:21;5.45;;;2.75;;
48987;SDS011;34799;51.440;-2.534;2023-04-26T14:59:48;13.43;;;2.50;;
48987;SDS011;34799;51.440;-2.534;2023-04-26T15:02:17;8.07;;;2.53;;
48987;SDS011;34799;51.440;-2.534;2023-04-26T15:04:44;11.32;;;3.40;;